Louisville, KY

7:16 PM EDT on July 06, 2015 (GMT -0400)
APRSWXNET | | Change Station
CLOSE
Current Station
Personal Weather Station
Location: Louisville, KY
Elevation: 492 ft
Nearby Weather Stations

Elev 492 ft 38.22 °N, 85.75 °W | Updated 21 minutes ago

Partly Cloudy
Partly Cloudy
85 °F
Feels Like 90 °F
N
6
Wind Variable Wind from SSW
Gusts 16.0 mph

Today
High -- | Low -- °F
--% Chance of Precip.
Yesterday
High -- | Low -- °F
Precip. -- in
6:25 AM 9:09 PM
Waning Gibbous, 71% visible
Pressure 29.98 in
Visibility 10.0 miles
Clouds Scattered Clouds 3600 ft
Heat Index 90 °F
Dew Point 71 °F
Humidity 63%
Rainfall in
Snow Depth Not available.
UV 2 out of 12
Pollen 3.50 out of 12
Air Quality Not available.
Flu Activity Not available.
METAR KSDF 062256Z 21010KT 10SM SCT036 30/21 A3000 RMK AO2 SLP152 T03000211

More Conditions Fewer Conditions

Pressure 29.98 in
Visibility 10.0 miles
Clouds Scattered Clouds 3600 ft
Heat Index 90 °F
Dew Point 71 °F
Humidity 63%
Rainfall in
Snow Depth Not available.
UV 2 out of 12
Pollen 3.50 out of 12
Air Quality Not available.
Flu Activity Not available.
METAR KSDF 062256Z 21010KT 10SM SCT036 30/21 A3000 RMK AO2 SLP152 T03000211

More Conditions Fewer Conditions

10-Day Weather Forecast

×

Almanac

Astronomy

Jul. 06, 2015 Rise Set
Actual Time
Civil Twilight
Nautical Twilight
Astronomical Twilight
Moon
Length of Visible Light
Length of Day
Tomorrow will be .
, % of the Moon is Illuminated

Today's Extremes

State Highs State Lows

Community

WunderPhotos

Upload Photos

1,835,674 photos uploaded!

WunderBlogs® & News

Nearby

Air Quality

  Air Quality AQ Index Pollutant
Not available.

Snow Depth

Station Depth Elevation

Earthquake Activity

City Distance Mag. Time & Date
Minimum magnitude displayed is 2.5.

Coastal Water Temperatures

Place Temperature

Stations

Nearby Weather Stations

Station Location Temp. Windchill Dew Point Humidity Wind Precip. Elev Updated Type